Time;durP1;ratioP1;P1;durP2;ratioP2;P2;SDS_P1;SDS_P2;PMS_P1;PMS_P2;Temp;Humidity;BMP_temperature;BMP_pressure;BME280_temperature;BME280_humidity;BME280_pressure;Samples;Min_cycle;Max_cycle;Signal;HPM_P1;HPM_P2
2022/07/20 00:00:33;;;;;;;10.82;10.05;;;28.50;37.60;;;;;;5019588;28;20213;-88
2022/07/20 00:03:03;;;;;;;10.93;10.02;;;28.70;37.60;;;;;;4994403;28;20182;-88
2022/07/20 00:05:29;;;;;;;11.10;10.25;;;28.70;37.20;;;;;;5017241;28;20877;-88
2022/07/20 00:07:55;;;;;;;10.15;9.45;;;28.60;38.30;;;;;;4993710;28;20194;-87
2022/07/20 00:13:06;;;;;;;11.63;10.73;;;28.10;39.50;;;;;;5021427;28;20205;-87
2022/07/20 00:15:32;;;;;;;10.63;9.93;;;28.10;39.30;;;;;;5015044;28;20679;-88
2022/07/20 00:17:58;;;;;;;10.30;9.65;;;28.00;39.60;;;;;;5001247;28;20197;-88
2022/07/20 00:20:24;;;;;;;10.75;10.15;;;28.00;39.50;;;;;;5001557;28;20205;-89
2022/07/20 00:22:49;;;;;;;11.52;10.50;;;28.10;39.70;;;;;;5013031;28;20210;-89
2022/07/20 00:25:15;;;;;;;11.13;10.18;;;28.10;39.80;;;;;;5012287;28;20186;-87
2022/07/20 00:27:41;;;;;;;11.55;10.75;;;28.10;39.70;;;;;;5002130;28;20197;-87
2022/07/20 00:30:07;;;;;;;11.02;10.32;;;27.90;40.40;;;;;;5022765;28;20197;-86
2022/07/20 00:32:37;;;;;;;12.13;11.27;;;27.90;40.50;;;;;;5002054;28;20194;-87
2022/07/20 00:35:06;;;;;;;13.70;12.57;;;27.80;41.20;;;;;;5011444;28;20189;-88
2022/07/20 00:37:32;;;;;;;12.85;12.05;;;27.60;42.50;;;;;;5013780;28;20220;-87
2022/07/20 00:39:57;;;;;;;12.25;11.43;;;27.40;42.80;;;;;;5023162;28;20269;-87
2022/07/20 00:42:23;;;;;;;12.63;11.82;;;27.40;42.90;;;;;;5025145;28;20186;-86
2022/07/20 00:44:50;;;;;;;13.18;12.20;;;27.50;42.50;;;;;;4985551;28;20197;-88
2022/07/20 00:47:15;;;;;;;12.65;11.93;;;27.40;42.70;;;;;;4994358;28;20277;-86
2022/07/20 00:49:41;;;;;;;12.85;11.95;;;27.40;43.00;;;;;;5017331;28;20198;-87
2022/07/20 00:52:07;;;;;;;12.10;11.32;;;27.50;42.80;;;;;;5019961;28;20676;-87
2022/07/20 00:54:33;;;;;;;12.20;11.50;;;27.50;43.00;;;;;;5013039;28;20201;-88
2022/07/20 00:56:59;;;;;;;13.00;12.02;;;27.60;43.00;;;;;;5002720;28;20230;-88
2022/07/20 00:59:25;;;;;;;12.20;11.38;;;27.50;43.60;;;;;;5006971;28;20286;-88
2022/07/20 01:01:51;;;;;;;12.45;11.48;;;27.50;43.70;;;;;;5018940;28;20225;-87
2022/07/20 01:04:17;;;;;;;13.40;12.25;;;27.40;44.10;;;;;;5005834;28;20182;-88
2022/07/20 01:06:43;;;;;;;12.05;11.38;;;27.30;45.00;;;;;;5027812;28;20294;-88
2022/07/20 01:09:09;;;;;;;12.70;11.90;;;27.40;44.60;;;;;;5015234;28;20861;-88
2022/07/20 01:11:35;;;;;;;12.88;12.07;;;27.30;45.20;;;;;;5001628;28;20257;-87
2022/07/20 01:14:06;;;;;;;13.73;12.65;;;27.30;45.10;;;;;;5015611;28;20201;-88
2022/07/20 01:16:33;;;;;;;13.50;12.70;;;27.20;45.40;;;;;;5018702;28;20208;-87
2022/07/20 01:18:59;;;;;;;12.15;11.45;;;27.10;46.10;;;;;;5009078;28;20212;-88
2022/07/20 01:21:24;;;;;;;12.98;12.18;;;27.00;45.90;;;;;;4995885;28;20217;-87
2022/07/20 01:23:50;;;;;;;13.82;13.00;;;26.90;46.20;;;;;;5027143;28;20202;-87
2022/07/20 01:26:17;;;;;;;12.02;11.23;;;26.90;45.60;;;;;;5005927;28;20213;-88
2022/07/20 01:28:43;;;;;;;12.38;11.68;;;26.80;46.00;;;;;;5010105;28;20186;-88
2022/07/20 01:31:09;;;;;;;11.77;11.02;;;26.90;45.70;;;;;;4985680;28;20198;-88
2022/07/20 01:33:35;;;;;;;12.13;11.32;;;26.80;45.90;;;;;;5015202;28;20225;-87
2022/07/20 01:36:01;;;;;;;11.88;11.18;;;26.70;46.00;;;;;;5026073;28;20202;-87
2022/07/20 01:38:26;;;;;;;12.05;11.35;;;26.60;46.80;;;;;;5013812;28;20197;-87
2022/07/20 01:40:52;;;;;;;11.98;11.10;;;26.60;46.40;;;;;;5024881;28;20213;-88
2022/07/20 01:43:18;;;;;;;12.25;11.45;;;26.60;46.60;;;;;;4992724;28;20251;-87
2022/07/20 01:45:44;;;;;;;11.57;10.77;;;26.50;47.00;;;;;;5021913;28;20211;-88
2022/07/20 01:48:10;;;;;;;11.40;10.50;;;26.60;47.10;;;;;;5021183;28;20190;-88
2022/07/20 01:50:38;;;;;;;11.40;10.68;;;26.50;47.30;;;;;;5037640;28;20186;-87
2022/07/20 01:53:04;;;;;;;11.15;10.43;;;26.60;47.30;;;;;;5021475;28;20190;-88
2022/07/20 01:55:30;;;;;;;11.55;10.63;;;26.60;47.00;;;;;;4994857;28;20202;-88
2022/07/20 01:57:55;;;;;;;12.02;11.05;;;26.50;47.30;;;;;;5016077;28;20243;-87
2022/07/20 02:00:22;;;;;;;11.68;10.85;;;26.50;47.70;;;;;;5020092;28;20225;-88
2022/07/20 02:02:49;;;;;;;11.57;10.77;;;26.50;47.80;;;;;;5029831;28;20718;-86
2022/07/20 02:05:15;;;;;;;12.23;11.30;;;26.40;48.10;;;;;;4993882;28;20190;-87
2022/07/20 02:07:40;;;;;;;11.43;10.73;;;26.40;48.50;;;;;;5000397;28;20228;-88
2022/07/20 02:10:08;;;;;;;11.35;10.38;;;26.30;49.00;;;;;;5017220;28;20242;-88
2022/07/20 02:12:34;;;;;;;11.07;10.38;;;26.30;48.90;;;;;;4996969;28;20658;-88
2022/07/20 02:15:00;;;;;;;10.63;9.93;;;26.30;49.00;;;;;;5021427;28;20194;-87
2022/07/20 02:17:26;;;;;;;11.43;10.52;;;26.40;48.90;;;;;;5025832;28;20221;-88
2022/07/20 02:19:52;;;;;;;11.30;10.50;;;26.40;49.20;;;;;;5001136;28;20237;-85
2022/07/20 02:22:18;;;;;;;11.55;10.70;;;26.40;49.50;;;;;;5009270;28;20619;-87
2022/07/20 02:24:43;;;;;;;12.02;11.13;;;26.40;49.60;;;;;;5024725;28;20194;-84
2022/07/20 02:27:09;;;;;;;11.85;11.02;;;26.30;49.60;;;;;;5003951;28;20224;-86
2022/07/20 02:29:35;;;;;;;12.45;11.50;;;26.10;50.40;;;;;;4992814;28;20193;-86
2022/07/20 02:32:00;;;;;;;11.68;10.93;;;25.90;50.30;;;;;;5008437;28;20269;-87
2022/07/20 02:34:27;;;;;;;11.43;10.63;;;25.80;50.80;;;;;;5019546;28;20201;-88
2022/07/20 02:36:52;;;;;;;11.07;10.48;;;25.80;50.80;;;;;;4978470;28;20237;-86
2022/07/20 02:39:18;;;;;;;11.07;10.20;;;25.60;51.80;;;;;;5003941;28;20202;-87
2022/07/20 02:41:43;;;;;;;11.32;10.52;;;25.50;51.60;;;;;;5018783;28;20190;-85
2022/07/20 02:44:09;;;;;;;12.30;11.27;;;25.50;52.10;;;;;;5032595;28;20190;-86
2022/07/20 02:46:35;;;;;;;12.32;11.50;;;25.40;52.40;;;;;;5016764;28;20228;-85
2022/07/20 02:49:00;;;;;;;15.70;10.88;;;25.50;52.20;;;;;;5017062;28;20190;-86
2022/07/20 02:51:26;;;;;;;25.67;12.80;;;25.20;53.40;;;;;;5010139;28;20237;-86
2022/07/20 02:53:52;;;;;;;15.45;11.27;;;25.20;53.40;;;;;;5003845;28;20194;-85
2022/07/20 02:56:17;;;;;;;12.38;11.15;;;25.20;53.40;;;;;;5009381;28;20697;-85
2022/07/20 02:58:43;;;;;;;11.25;10.45;;;25.20;53.00;;;;;;5006377;28;20193;-87
2022/07/20 03:01:09;;;;;;;10.95;10.15;;;24.90;54.70;;;;;;5019657;28;20261;-87
2022/07/20 03:03:35;;;;;;;11.60;10.90;;;25.00;54.60;;;;;;5001388;28;20724;-86
2022/07/20 03:06:00;;;;;;;11.82;10.90;;;25.00;54.40;;;;;;5020068;28;20233;-85
2022/07/20 03:08:26;;;;;;;11.52;10.70;;;25.00;54.20;;;;;;5025309;28;20252;-85
2022/07/20 03:10:52;;;;;;;11.68;10.70;;;25.00;54.00;;;;;;5032903;28;20220;-85
2022/07/20 03:13:18;;;;;;;11.43;10.52;;;25.10;54.00;;;;;;5007623;28;20575;-86
2022/07/20 03:15:43;;;;;;;11.05;10.45;;;25.00;54.10;;;;;;4988629;28;20218;-87
2022/07/20 03:18:09;;;;;;;15.30;11.32;;;25.00;54.20;;;;;;4993176;28;20194;-85
2022/07/20 03:20:35;;;;;;;15.35;11.20;;;25.10;55.00;;;;;;5018996;28;20267;-85
2022/07/20 03:23:01;;;;;;;11.45;10.15;;;25.00;54.40;;;;;;5023056;28;20276;-85
2022/07/20 03:25:27;;;;;;;12.88;11.20;;;25.00;55.30;;;;;;5018809;28;20249;-87
2022/07/20 03:27:54;;;;;;;12.23;11.20;;;25.10;54.80;;;;;;5024958;28;20181;-86
2022/07/20 03:30:21;;;;;;;10.80;9.77;;;25.10;54.10;;;;;;5025287;28;20181;-86
2022/07/20 03:32:47;;;;;;;11.48;10.52;;;25.00;54.40;;;;;;5025370;28;20213;-86
2022/07/20 03:35:12;;;;;;;11.93;10.85;;;25.00;54.70;;;;;;5018885;28;20209;-86
2022/07/20 03:37:38;;;;;;;11.38;10.68;;;24.90;55.60;;;;;;4997747;28;20213;-86
2022/07/20 03:40:05;;;;;;;11.23;10.40;;;24.80;56.30;;;;;;5021542;28;20212;-87
2022/07/20 03:42:31;;;;;;;11.20;10.30;;;24.80;56.10;;;;;;4989171;28;20658;-87
2022/07/20 03:44:57;;;;;;;11.07;10.27;;;24.70;56.50;;;;;;5017579;28;20178;-87
2022/07/20 03:47:23;;;;;;;11.32;10.50;;;24.80;56.10;;;;;;5018802;28;20212;-86
2022/07/20 03:49:50;;;;;;;11.77;10.75;;;24.80;55.80;;;;;;5006439;28;20182;-86
2022/07/20 03:52:18;;;;;;;11.40;10.50;;;24.80;56.60;;;;;;5008637;28;20772;-86
2022/07/20 03:54:44;;;;;;;11.88;11.00;;;24.80;55.90;;;;;;5007892;28;20185;-87
2022/07/20 03:57:09;;;;;;;12.40;11.40;;;24.90;55.60;;;;;;5010933;28;20209;-87
2022/07/20 03:59:35;;;;;;;11.18;10.50;;;24.90;55.70;;;;;;5007394;28;20219;-86
2022/07/20 04:02:02;;;;;;;11.50;10.60;;;24.80;56.10;;;;;;5013851;28;20210;-86
2022/07/20 04:04:28;;;;;;;11.25;10.43;;;24.80;56.00;;;;;;5024053;28;20241;-87
2022/07/20 04:06:55;;;;;;;10.70;10.00;;;24.70;55.40;;;;;;5010546;28;20206;-87
2022/07/20 04:12:05;;;;;;;10.93;10.13;;;24.60;56.40;;;;;;5009317;28;20230;-87
2022/07/20 04:14:31;;;;;;;11.05;10.13;;;24.50;57.00;;;;;;5009002;28;20194;-86
2022/07/20 04:16:56;;;;;;;11.00;10.20;;;24.50;56.80;;;;;;5003222;28;20232;-87
2022/07/20 04:19:22;;;;;;;12.60;11.13;;;24.50;56.30;;;;;;5004173;28;20193;-89
2022/07/20 04:21:48;;;;;;;11.88;10.70;;;24.50;56.40;;;;;;5024447;28;20268;-86
2022/07/20 04:24:13;;;;;;;12.20;11.00;;;24.70;56.00;;;;;;5006756;28;20186;-87
2022/07/20 04:26:39;;;;;;;11.57;10.70;;;24.60;56.40;;;;;;5003641;28;20213;-86
2022/07/20 04:29:05;;;;;;;12.27;11.43;;;24.60;56.50;;;;;;5020446;28;20666;-88
2022/07/20 04:31:31;;;;;;;11.95;11.00;;;24.40;57.80;;;;;;5022934;28;20205;-87
2022/07/20 04:33:56;;;;;;;12.30;11.43;;;24.20;59.70;;;;;;4979189;28;20190;-86
2022/07/20 04:36:23;;;;;;;12.48;11.57;;;24.00;58.60;;;;;;5026563;28;20233;-83
2022/07/20 04:38:49;;;;;;;11.40;10.70;;;24.10;59.10;;;;;;5012075;28;20166;-86
2022/07/20 04:41:14;;;;;;;12.00;11.20;;;24.10;58.50;;;;;;5007565;28;20289;-87
2022/07/20 04:43:40;;;;;;;13.15;11.95;;;24.20;57.80;;;;;;5020219;28;20641;-87
2022/07/20 04:46:06;;;;;;;12.88;11.38;;;24.20;58.00;;;;;;5018329;28;20623;-88
2022/07/20 04:48:32;;;;;;;12.80;11.52;;;24.20;58.70;;;;;;5006415;28;20284;-87
2022/07/20 04:50:57;;;;;;;11.90;10.68;;;24.20;58.80;;;;;;4998661;28;20201;-86
2022/07/20 04:53:23;;;;;;;12.48;11.02;;;24.10;58.90;;;;;;5016193;28;20223;-87
2022/07/20 04:55:48;;;;;;;11.77;10.95;;;24.20;58.60;;;;;;5021225;28;20220;-87
2022/07/20 04:58:14;;;;;;;11.73;10.93;;;24.30;58.20;;;;;;5017786;28;20195;-85
2022/07/20 05:00:40;;;;;;;11.98;10.80;;;24.20;58.00;;;;;;5023909;28;20213;-87
2022/07/20 05:03:05;;;;;;;12.27;11.38;;;24.20;58.30;;;;;;5006735;28;20197;-87
2022/07/20 05:05:31;;;;;;;12.15;11.32;;;24.30;57.70;;;;;;5011202;28;20186;-87
2022/07/20 05:07:57;;;;;;;12.95;11.85;;;24.40;56.60;;;;;;4998641;28;20198;-86
2022/07/20 05:10:23;;;;;;;14.00;12.48;;;24.40;57.70;;;;;;5009891;28;20221;-86
2022/07/20 05:12:48;;;;;;;12.43;11.32;;;24.50;56.30;;;;;;5017133;28;20285;-84
2022/07/20 05:15:14;;;;;;;12.23;11.32;;;24.60;55.80;;;;;;5011540;28;20202;-85
2022/07/20 05:17:40;;;;;;;11.90;10.73;;;24.60;56.10;;;;;;5017714;28;20760;-86
2022/07/20 05:20:06;;;;;;;14.52;12.07;;;24.60;55.60;;;;;;5017272;28;20214;-85
2022/07/20 05:22:31;;;;;;;12.80;11.50;;;24.80;54.80;;;;;;5022656;28;20189;-85
2022/07/20 05:24:57;;;;;;;12.15;11.25;;;24.70;55.10;;;;;;5005460;28;20250;-87
2022/07/20 05:27:23;;;;;;;11.43;10.55;;;24.80;54.60;;;;;;5022480;28;20231;-87
2022/07/20 05:29:49;;;;;;;13.48;11.82;;;25.00;54.50;;;;;;5009100;28;20272;-87
2022/07/20 05:32:14;;;;;;;12.65;11.68;;;24.90;54.70;;;;;;5013321;28;20232;-88
2022/07/20 05:34:40;;;;;;;11.63;10.82;;;24.90;54.70;;;;;;5021359;28;20220;-88
2022/07/20 05:37:06;;;;;;;12.15;10.98;;;24.90;54.40;;;;;;4999931;28;20319;-88
2022/07/20 05:39:31;;;;;;;12.15;10.93;;;25.00;54.40;;;;;;4999298;28;20426;-88
2022/07/20 05:41:57;;;;;;;12.20;11.20;;;25.10;54.80;;;;;;5011807;28;20182;-87
2022/07/20 05:44:23;;;;;;;12.20;11.23;;;25.20;53.60;;;;;;5003695;28;20845;-88
2022/07/20 05:46:48;;;;;;;12.98;10.90;;;25.10;53.90;;;;;;5014702;28;20689;-88
2022/07/20 05:49:14;;;;;;;12.07;11.18;;;25.20;53.70;;;;;;5005178;28;20205;-88
2022/07/20 05:51:40;;;;;;;12.15;11.07;;;25.30;54.00;;;;;;5005478;28;20255;-88
2022/07/20 05:54:05;;;;;;;12.35;11.40;;;25.30;54.20;;;;;;5012661;28;20197;-86
2022/07/20 05:56:31;;;;;;;12.77;11.77;;;25.40;53.50;;;;;;5010946;28;20892;-86
2022/07/20 05:58:57;;;;;;;11.90;10.93;;;25.40;53.00;;;;;;5005396;28;20320;-86
2022/07/20 06:01:23;;;;;;;12.38;11.38;;;25.30;52.90;;;;;;5012352;28;20213;-87
2022/07/20 06:03:48;;;;;;;11.63;10.82;;;25.50;52.70;;;;;;4994726;28;20178;-87
2022/07/20 06:06:14;;;;;;;12.57;11.50;;;25.50;52.40;;;;;;5009426;28;20210;-85
2022/07/20 06:08:40;;;;;;;12.45;11.27;;;25.60;52.40;;;;;;5007515;28;20270;-86
2022/07/20 06:11:07;;;;;;;13.07;11.90;;;25.70;52.00;;;;;;5010595;28;20534;-85
2022/07/20 06:13:32;;;;;;;12.48;11.57;;;25.70;52.20;;;;;;5015015;28;20190;-86
2022/07/20 06:15:58;;;;;;;12.95;11.65;;;25.60;53.10;;;;;;5002722;28;20309;-86
2022/07/20 06:18:24;;;;;;;12.15;11.20;;;25.70;52.90;;;;;;5003145;28;20228;-88
2022/07/20 06:20:49;;;;;;;12.23;11.27;;;25.80;51.90;;;;;;5006235;28;20244;-88
2022/07/20 06:23:15;;;;;;;12.25;11.30;;;25.90;51.90;;;;;;5005191;28;20243;-87
2022/07/20 06:25:41;;;;;;;11.93;11.13;;;26.00;52.00;;;;;;5006749;28;20323;-88
2022/07/20 06:28:07;;;;;;;13.15;11.90;;;26.10;51.20;;;;;;4988112;28;20216;-87
2022/07/20 06:30:33;;;;;;;12.25;11.43;;;26.10;51.40;;;;;;5004644;28;20218;-88
2022/07/20 06:32:58;;;;;;;12.25;11.25;;;26.20;50.40;;;;;;4987401;28;20260;-88
2022/07/20 06:35:24;;;;;;;12.35;11.45;;;26.30;49.80;;;;;;4987752;28;20189;-87
2022/07/20 06:37:50;;;;;;;12.23;11.35;;;26.40;50.00;;;;;;5019363;28;20206;-88
2022/07/20 06:40:15;;;;;;;13.13;11.95;;;26.40;50.60;;;;;;5001376;28;20240;-87
2022/07/20 06:42:41;;;;;;;14.55;12.32;;;26.40;49.50;;;;;;5011747;28;20186;-88
2022/07/20 06:45:07;;;;;;;13.65;12.52;;;26.20;49.70;;;;;;4987048;28;20192;-88
2022/07/20 06:47:33;;;;;;;13.00;11.90;;;26.20;49.30;;;;;;5005198;28;20209;-87
2022/07/20 06:49:59;;;;;;;12.70;11.77;;;26.20;49.80;;;;;;5006921;28;20562;-88
2022/07/20 06:52:24;;;;;;;13.15;11.90;;;26.10;49.00;;;;;;5004375;28;20212;-88
2022/07/20 06:54:50;;;;;;;13.38;12.23;;;26.10;50.30;;;;;;5002683;28;20204;-88
2022/07/20 06:57:16;;;;;;;13.43;12.40;;;26.30;50.10;;;;;;5004936;28;20804;-88
2022/07/20 06:59:42;;;;;;;12.70;11.80;;;26.50;49.70;;;;;;5002179;28;20871;-88
2022/07/20 07:02:08;;;;;;;13.10;11.90;;;26.50;48.80;;;;;;5007674;28;20653;-88
2022/07/20 07:04:34;;;;;;;12.88;11.98;;;26.70;47.30;;;;;;5003033;28;20556;-88
2022/07/20 07:07:02;;;;;;;12.82;11.77;;;26.70;47.70;;;;;;5004278;28;20217;-88
2022/07/20 07:09:28;;;;;;;12.75;11.75;;;26.80;47.30;;;;;;4986541;28;20212;-87
2022/07/20 07:11:54;;;;;;;12.85;11.75;;;27.00;47.20;;;;;;5005218;28;20195;-88
2022/07/20 07:14:20;;;;;;;12.15;11.05;;;27.10;47.00;;;;;;5006623;28;20292;-87
2022/07/20 07:16:46;;;;;;;11.93;10.85;;;27.30;46.80;;;;;;5001970;28;20234;-87
2022/07/20 07:19:12;;;;;;;12.25;11.35;;;27.40;46.90;;;;;;5007441;28;20540;-86
2022/07/20 07:21:38;;;;;;;11.90;10.98;;;27.40;43.70;;;;;;5018130;28;20205;-87
2022/07/20 07:24:04;;;;;;;13.95;11.63;;;27.50;44.60;;;;;;5011029;28;20212;-87
2022/07/20 07:26:29;;;;;;;12.23;11.25;;;27.40;45.60;;;;;;4994813;28;20540;-86
2022/07/20 07:28:55;;;;;;;13.90;12.18;;;27.60;45.40;;;;;;5005789;28;20672;-86
2022/07/20 07:31:21;;;;;;;12.98;11.68;;;27.70;47.40;;;;;;5007258;28;20200;-87
2022/07/20 07:33:47;;;;;;;12.90;11.63;;;27.80;46.60;;;;;;4993334;28;20591;-86
2022/07/20 07:36:14;;;;;;;12.85;11.52;;;27.90;47.90;;;;;;5010641;28;20256;-87
2022/07/20 07:38:40;;;;;;;12.48;11.48;;;28.10;44.90;;;;;;5006098;28;20189;-86
2022/07/20 07:41:06;;;;;;;12.02;10.95;;;28.20;43.60;;;;;;4989794;28;20237;-86
2022/07/20 07:43:31;;;;;;;11.57;10.57;;;28.30;42.50;;;;;;4987629;28;20201;-86
2022/07/20 07:45:57;;;;;;;11.52;10.50;;;28.30;41.90;;;;;;5003371;28;20209;-85
2022/07/20 07:48:23;;;;;;;11.85;10.65;;;28.40;42.30;;;;;;5005955;28;20193;-87
2022/07/20 07:50:48;;;;;;;11.15;10.35;;;28.50;40.50;;;;;;5005347;28;20378;-86
2022/07/20 07:53:14;;;;;;;10.95;9.85;;;28.60;39.30;;;;;;5006230;28;20197;-86
2022/07/20 07:55:41;;;;;;;11.73;10.73;;;28.60;39.60;;;;;;4987284;28;20210;-87
2022/07/20 07:58:08;;;;;;;11.45;10.15;;;28.50;40.70;;;;;;5003927;28;20586;-88
2022/07/20 08:00:36;;;;;;;10.63;9.82;;;28.80;39.30;;;;;;4988875;28;20432;-88
2022/07/20 08:03:03;;;;;;;11.40;10.13;;;28.90;39.30;;;;;;4988122;28;20209;-88
2022/07/20 08:05:29;;;;;;;11.77;10.68;;;28.90;39.50;;;;;;5004358;28;20278;-86
2022/07/20 08:07:55;;;;;;;11.57;10.65;;;29.00;39.60;;;;;;5000244;28;20213;-87
2022/07/20 08:10:21;;;;;;;11.98;10.85;;;29.10;39.30;;;;;;4985593;28;20470;-87
2022/07/20 08:12:47;;;;;;;15.48;10.43;;;29.10;38.80;;;;;;4983726;28;20193;-87
2022/07/20 08:15:12;;;;;;;11.10;10.10;;;29.20;39.10;;;;;;5004377;28;20193;-87
2022/07/20 08:17:39;;;;;;;10.90;10.00;;;29.30;38.90;;;;;;4986634;28;20212;-86
2022/07/20 08:20:06;;;;;;;13.80;11.90;;;29.30;39.20;;;;;;5010137;28;20205;-88
2022/07/20 08:22:32;;;;;;;12.05;11.05;;;29.40;40.90;;;;;;5006610;28;20185;-87
2022/07/20 08:24:59;;;;;;;12.98;11.68;;;29.50;39.20;;;;;;5005185;28;20198;-88
2022/07/20 08:27:24;;;;;;;14.27;12.88;;;29.50;39.50;;;;;;4985164;28;20206;-88
2022/07/20 08:29:52;;;;;;;14.32;13.20;;;29.70;40.10;;;;;;5001378;28;20212;-88
2022/07/20 08:32:17;;;;;;;14.55;13.45;;;29.70;40.40;;;;;;5006487;28;20326;-88
2022/07/20 08:34:43;;;;;;;14.77;13.43;;;29.90;40.20;;;;;;5002736;28;20189;-88
2022/07/20 08:37:08;;;;;;;15.73;14.23;;;30.00;40.80;;;;;;5004883;28;20217;-87
2022/07/20 08:39:34;;;;;;;17.65;16.15;;;30.20;40.60;;;;;;5007025;28;20277;-87
2022/07/20 08:42:01;;;;;;;17.45;16.13;;;30.10;41.40;;;;;;5009621;28;20680;-86
2022/07/20 08:44:26;;;;;;;18.48;17.02;;;30.40;41.50;;;;;;5009516;28;20285;-87
2022/07/20 08:46:54;;;;;;;21.33;19.40;;;30.50;42.20;;;;;;4989154;28;20388;-87
2022/07/20 08:49:20;;;;;;;22.13;20.35;;;30.70;42.70;;;;;;5005220;28;20252;-86
2022/07/20 08:51:45;;;;;;;21.95;20.10;;;30.80;42.90;;;;;;5006482;28;20217;-86
2022/07/20 08:54:11;;;;;;;25.75;23.65;;;31.00;43.70;;;;;;5007573;28;20212;-86
2022/07/20 08:56:37;;;;;;;27.10;24.45;;;31.10;42.00;;;;;;5006575;28;20205;-85
2022/07/20 08:59:02;;;;;;;24.13;22.25;;;31.10;41.80;;;;;;5005023;28;20178;-86
2022/07/20 09:01:28;;;;;;;25.42;23.33;;;30.90;41.00;;;;;;5008457;28;20289;-86
2022/07/20 09:04:11;;;;;;;24.70;22.80;;;30.90;41.20;;;;;;5004756;28;20186;-86
2022/07/20 09:06:48;;;;;;;23.65;21.98;;;31.10;42.00;;;;;;5006986;28;20205;-86
2022/07/20 09:09:15;;;;;;;24.60;22.75;;;31.30;41.20;;;;;;5006055;28;20687;-86
2022/07/20 09:11:41;;;;;;;25.27;23.33;;;31.40;41.20;;;;;;5005697;28;20303;-87
2022/07/20 09:14:07;;;;;;;26.13;23.92;;;31.50;41.20;;;;;;4989798;28;20277;-87
2022/07/20 09:16:46;;;;;;;25.67;23.65;;;31.60;40.60;;;;;;4989159;28;20217;-86
2022/07/20 09:19:14;;;;;;;24.73;22.73;;;31.60;40.40;;;;;;5006875;28;20528;-86
2022/07/20 09:21:40;;;;;;;25.17;22.88;;;31.70;41.00;;;;;;5007234;28;20206;-87
2022/07/20 09:24:09;;;;;;;27.92;24.30;;;31.70;41.30;;;;;;4987578;28;20213;-86
2022/07/20 09:26:36;;;;;;;24.83;22.83;;;31.80;40.50;;;;;;5007513;28;20202;-88
2022/07/20 09:29:04;;;;;;;25.63;23.73;;;31.80;40.30;;;;;;5007631;28;20178;-87
2022/07/20 09:31:36;;;;;;;25.33;23.17;;;31.70;40.40;;;;;;5006333;28;20193;-87
2022/07/20 09:34:13;;;;;;;25.23;23.13;;;31.80;40.50;;;;;;5006387;28;20547;-87
2022/07/20 09:36:42;;;;;;;23.48;21.58;;;31.90;41.80;;;;;;5007669;28;20210;-87
2022/07/20 09:39:13;;;;;;;25.70;23.70;;;32.20;41.30;;;;;;5005895;28;20212;-87
2022/07/20 09:41:42;;;;;;;24.63;22.73;;;32.30;39.80;;;;;;5005107;28;20210;-87
2022/07/20 09:44:12;;;;;;;25.23;23.25;;;32.50;39.80;;;;;;5008142;28;20183;-87
2022/07/20 09:46:38;;;;;;;24.83;22.98;;;32.50;40.00;;;;;;5008255;28;20213;-86
2022/07/20 09:49:09;;;;;;;26.52;24.42;;;32.50;39.60;;;;;;5007628;28;20236;-87
2022/07/20 09:51:43;;;;;;;25.70;23.23;;;32.30;40.90;;;;;;5006429;28;20212;-87
2022/07/20 09:54:11;;;;;;;25.73;23.63;;;32.70;40.40;;;;;;5008580;28;20207;-87
2022/07/20 09:56:42;;;;;;;24.85;23.00;;;32.80;39.20;;;;;;5010191;28;20269;-87
2022/07/20 09:59:10;;;;;;;26.20;23.70;;;32.90;40.20;;;;;;5010009;28;20178;-87
2022/07/20 10:01:39;;;;;;;26.58;24.27;;;33.00;40.00;;;;;;5014477;28;20309;-87
2022/07/20 10:04:07;;;;;;;25.35;23.15;;;33.00;39.30;;;;;;5023031;28;20162;-87
2022/07/20 10:06:35;;;;;;;24.65;22.75;;;33.00;39.70;;;;;;5027021;28;20201;-86
2022/07/20 10:09:01;;;;;;;27.08;24.85;;;33.20;39.40;;;;;;5021598;28;20197;-86
2022/07/20 10:11:27;;;;;;;27.67;25.25;;;33.30;39.20;;;;;;5025078;28;20206;-87
2022/07/20 10:13:55;;;;;;;26.90;24.73;;;33.40;38.60;;;;;;5010961;28;20190;-86
2022/07/20 10:16:39;;;;;;;26.30;23.85;;;33.60;39.10;;;;;;5007781;28;20214;-87
2022/07/20 10:19:06;;;;;;;26.67;24.67;;;33.90;38.50;;;;;;4989225;28;20198;-87
2022/07/20 10:21:42;;;;;;;28.25;26.00;;;34.20;39.00;;;;;;4992760;28;20654;-87
2022/07/20 10:24:18;;;;;;;29.27;27.02;;;34.00;39.10;;;;;;5005695;28;20184;-85
2022/07/20 10:26:48;;;;;;;27.70;25.73;;;34.20;38.80;;;;;;5006625;28;20370;-86
2022/07/20 10:29:32;;;;;;;28.88;25.33;;;34.30;38.00;;;;;;5008781;28;20192;-87
2022/07/20 10:32:08;;;;;;;28.35;26.10;;;34.40;37.00;;;;;;5013799;28;20171;-86
2022/07/20 10:34:37;;;;;;;27.90;25.50;;;34.50;37.60;;;;;;5010359;28;20710;-86
2022/07/20 10:37:23;;;;;;;27.85;25.13;;;34.50;36.50;;;;;;5009321;28;20218;-87
2022/07/20 10:40:02;;;;;;;26.10;23.98;;;34.40;37.10;;;;;;4990731;28;20214;-86
2022/07/20 10:42:47;;;;;;;29.33;27.15;;;34.40;37.00;;;;;;5007120;28;20213;-88
2022/07/20 10:45:19;;;;;;;27.40;25.35;;;34.70;37.30;;;;;;5008611;28;20189;-87
2022/07/20 10:47:47;;;;;;;29.02;26.73;;;34.70;37.60;;;;;;5006548;28;20178;-87
2022/07/20 10:50:29;;;;;;;27.38;25.00;;;34.90;36.30;;;;;;5009641;28;20197;-87
2022/07/20 10:52:58;;;;;;;26.60;24.42;;;34.40;36.50;;;;;;5008138;28;20272;-88
2022/07/20 10:55:32;;;;;;;27.63;25.20;;;34.50;37.20;;;;;;5010433;28;20677;-86
2022/07/20 10:57:58;;;;;;;26.98;24.92;;;34.60;36.30;;;;;;5010862;28;20199;-87
2022/07/20 11:00:29;;;;;;;25.58;23.42;;;34.90;35.50;;;;;;5005055;28;20214;-87
2022/07/20 11:02:56;;;;;;;26.85;24.67;;;34.90;36.40;;;;;;5003609;28;20220;-85
2022/07/20 11:05:22;;;;;;;26.48;24.15;;;34.90;35.80;;;;;;5007936;28;20194;-86
2022/07/20 11:07:48;;;;;;;27.42;25.27;;;34.90;36.50;;;;;;5008689;28;20181;-87
2022/07/20 11:10:26;;;;;;;27.85;25.27;;;34.90;37.10;;;;;;4989652;28;20332;-87
2022/07/20 11:13:02;;;;;;;28.42;25.77;;;35.20;36.80;;;;;;4993171;28;20729;-86
2022/07/20 11:15:48;;;;;;;27.92;26.02;;;35.50;35.30;;;;;;5008416;28;20197;-87
2022/07/20 11:18:17;;;;;;;26.63;24.45;;;35.30;35.70;;;;;;5010064;28;20185;-88
2022/07/20 11:20:50;;;;;;;27.45;25.05;;;35.30;34.50;;;;;;4988164;28;20216;-87
2022/07/20 11:23:18;;;;;;;27.23;24.45;;;35.30;35.50;;;;;;4988020;28;20665;-88
2022/07/20 11:25:52;;;;;;;26.17;24.25;;;35.20;36.50;;;;;;5009211;28;20212;-88
2022/07/20 11:28:24;;;;;;;27.42;25.15;;;35.30;34.90;;;;;;4990508;28;20276;-87
2022/07/20 11:30:52;;;;;;;27.08;24.92;;;35.40;35.20;;;;;;5009785;28;20337;-87
2022/07/20 11:33:29;;;;;;;27.75;25.38;;;35.40;35.30;;;;;;4989945;28;20181;-86
2022/07/20 11:36:00;;;;;;;27.75;25.45;;;35.60;34.10;;;;;;5006153;28;20218;-87
2022/07/20 11:38:40;;;;;;;26.58;24.73;;;35.80;33.20;;;;;;5008546;28;20236;-86
2022/07/20 11:41:09;;;;;;;28.38;26.23;;;35.80;33.70;;;;;;4992085;28;20216;-87
2022/07/20 11:43:36;;;;;;;25.90;24.00;;;35.80;33.20;;;;;;5009590;28;20181;-87
2022/07/20 11:46:36;;;;;;;27.52;25.23;;;35.70;32.40;;;;;;5008586;28;20202;-87
2022/07/20 11:49:05;;;;;;;26.60;24.60;;;35.30;33.30;;;;;;4960504;28;20202;-87
2022/07/20 11:51:32;;;;;;;26.85;24.90;;;35.20;33.80;;;;;;5005487;28;20206;-88
2022/07/20 11:53:58;;;;;;;26.33;24.52;;;35.40;33.30;;;;;;5007546;28;20189;-87
2022/07/20 11:56:27;;;;;;;28.05;25.75;;;35.50;33.00;;;;;;5009513;28;20790;-88
2022/07/20 11:58:55;;;;;;;25.80;23.73;;;35.30;32.80;;;;;;5008031;28;20660;-87
2022/07/20 12:01:24;;;;;;;26.55;23.77;;;35.20;33.80;;;;;;4989806;28;20286;-87
2022/07/20 12:03:53;;;;;;;26.58;24.73;;;35.30;33.30;;;;;;5007174;28;20187;-87
2022/07/20 12:06:19;;;;;;;26.52;24.60;;;35.40;32.90;;;;;;5007727;28;20256;-87
2022/07/20 12:09:05;;;;;;;25.38;23.60;;;35.10;33.50;;;;;;5007989;28;20273;-87
2022/07/20 12:11:31;;;;;;;25.13;23.33;;;34.90;33.20;;;;;;5009101;28;20224;-87
2022/07/20 12:13:57;;;;;;;25.92;23.75;;;35.10;33.30;;;;;;5011837;28;20195;-87
2022/07/20 12:16:23;;;;;;;24.95;23.02;;;35.50;32.50;;;;;;4993742;28;20525;-87
2022/07/20 12:18:52;;;;;;;26.88;24.92;;;35.80;33.10;;;;;;5012387;28;20190;-87
2022/07/20 12:21:20;;;;;;;25.95;24.33;;;35.90;31.30;;;;;;5011311;28;20214;-89
2022/07/20 12:23:52;;;;;;;26.98;24.85;;;35.40;32.00;;;;;;4992336;28;20598;-85
2022/07/20 12:26:28;;;;;;;26.27;24.17;;;35.00;32.60;;;;;;5010848;28;20624;-86
2022/07/20 12:28:56;;;;;;;25.77;23.92;;;34.60;33.10;;;;;;5011697;28;20190;-87
2022/07/20 12:31:27;;;;;;;24.40;22.73;;;35.10;32.50;;;;;;5010626;28;20189;-87
2022/07/20 12:34:09;;;;;;;26.13;24.23;;;35.30;32.90;;;;;;5007186;28;20217;-87